Time;durP1;ratioP1;P1;durP2;ratioP2;P2;SDS_P1;SDS_P2;PMS_P1;PMS_P2;Temp;Humidity;BMP_temperature;BMP_pressure;BME280_temperature;BME280_humidity;BME280_pressure;Samples;Min_cycle;Max_cycle;Signal;HPM_P1;HPM_P2
2022/05/28 00:01:17;;;;;;;3.88;2.58;;;;;;;14.94;68.64;97042.88;4938977;29;20055;-80
2022/05/28 00:03:46;;;;;;;5.50;2.88;;;;;;;14.98;68.15;97042.28;4939084;29;20068;-80
2022/05/28 00:06:16;;;;;;;3.42;3.13;;;;;;;14.98;68.18;97037.03;4938301;29;20230;-81
2022/05/28 00:08:44;;;;;;;3.03;2.30;;;;;;;15.02;68.10;97034.78;4938881;29;20056;-80
2022/05/28 00:11:15;;;;;;;2.55;2.35;;;;;;;15.05;68.39;97039.66;4938955;29;20086;-81
2022/05/28 00:13:43;;;;;;;3.03;2.28;;;;;;;15.08;68.45;97036.63;4938770;29;20075;-80
2022/05/28 00:16:13;;;;;;;2.67;2.38;;;;;;;15.14;68.24;97035.84;4939005;29;20079;-80
2022/05/28 00:18:42;;;;;;;2.72;2.38;;;;;;;15.19;67.87;97032.59;4939029;29;20072;-80
2022/05/28 00:21:11;;;;;;;4.95;3.20;;;;;;;15.22;68.19;97030.41;4938809;29;20052;-80
2022/05/28 00:23:39;;;;;;;3.08;2.83;;;;;;;15.24;67.60;97032.84;4938698;29;20056;-81
2022/05/28 00:26:07;;;;;;;2.17;1.98;;;;;;;15.25;68.00;97032.63;4938358;29;20054;-80
2022/05/28 00:28:35;;;;;;;4.00;2.75;;;;;;;15.25;67.67;97032.63;4939055;29;20587;-80
2022/05/28 00:31:03;;;;;;;3.40;2.50;;;;;;;15.25;67.82;97027.34;4938230;29;20062;-80
2022/05/28 00:33:32;;;;;;;2.67;2.38;;;;;;;15.25;67.53;97024.72;4940323;29;20062;-80
2022/05/28 00:36:01;;;;;;;3.10;2.70;;;;;;;15.24;67.94;97028.38;4938157;29;20094;-79
2022/05/28 00:38:29;;;;;;;2.58;2.35;;;;;;;15.24;68.24;97022.31;4938869;29;20056;-79
2022/05/28 00:41:00;;;;;;;3.88;2.63;;;;;;;15.23;67.83;97008.34;4938221;29;20483;-80
2022/05/28 00:43:29;;;;;;;4.78;2.45;;;;;;;15.21;67.77;97002.47;4938538;29;20056;-78
2022/05/28 00:46:02;;;;;;;4.00;2.17;;;;;;;15.22;68.85;96998.84;4940680;29;20049;-80
2022/05/28 00:48:32;;;;;;;3.97;2.80;;;;;;;15.19;67.47;97001.88;4940019;29;20087;-80
2022/05/28 00:51:06;;;;;;;2.55;2.35;;;;;;;15.18;68.64;97002.91;4938663;29;20108;-81
2022/05/28 00:53:34;;;;;;;4.68;2.40;;;;;;;15.19;68.07;97004.50;4938238;29;20080;-81
2022/05/28 00:56:03;;;;;;;2.88;2.33;;;;;;;15.20;68.14;97002.72;4937518;29;20112;-80
2022/05/28 00:58:32;;;;;;;4.68;2.45;;;;;;;15.21;68.79;97004.31;4938112;29;20116;-81
2022/05/28 01:01:00;;;;;;;3.83;2.38;;;;;;;15.23;68.93;96999.66;4937598;29;20056;-80
2022/05/28 01:03:36;;;;;;;4.28;2.30;;;;;;;15.25;68.98;97006.34;4938194;29;20064;-80
2022/05/28 01:06:12;;;;;;;5.18;2.42;;;;;;;15.29;69.12;97016.47;4937116;29;20052;-79
2022/05/28 01:08:44;;;;;;;3.47;2.58;;;;;;;15.28;68.79;97014.81;4937690;29;20052;-80
2022/05/28 01:11:20;;;;;;;4.07;2.80;;;;;;;15.29;69.56;97019.09;4937279;29;20059;-80
2022/05/28 01:13:54;;;;;;;3.22;2.30;;;;;;;15.30;68.85;97012.81;4937524;29;20059;-80
2022/05/28 01:16:30;;;;;;;5.60;3.10;;;;;;;15.30;69.05;97010.97;4937889;29;20047;-80
2022/05/28 01:19:05;;;;;;;3.13;2.83;;;;;;;15.28;69.00;97009.56;4937741;29;20090;-80
2022/05/28 01:21:41;;;;;;;5.10;2.95;;;;;;;15.27;69.52;97000.09;4938112;29;20119;-80
2022/05/28 01:24:17;;;;;;;4.75;2.90;;;;;;;15.24;68.65;97001.28;4937711;29;20095;-79
2022/05/28 01:26:54;;;;;;;5.10;3.22;;;;;;;15.22;68.57;96998.84;4936997;29;20052;-80
2022/05/28 01:29:24;;;;;;;2.92;2.63;;;;;;;15.20;68.53;97000.88;4937568;29;20075;-80
2022/05/28 01:31:52;;;;;;;3.40;2.78;;;;;;;15.19;68.36;97001.06;4937841;29;20090;-80
2022/05/28 01:34:21;;;;;;;4.05;2.60;;;;;;;15.15;67.84;96995.44;4937488;29;20127;-80
2022/05/28 01:36:50;;;;;;;4.47;3.25;;;;;;;15.13;67.52;97004.50;4937147;29;20048;-79
2022/05/28 01:39:20;;;;;;;3.75;2.55;;;;;;;15.09;67.67;96996.22;4937810;29;20051;-80
2022/05/28 01:41:50;;;;;;;3.30;2.47;;;;;;;15.07;67.62;97006.13;4937047;29;20052;-79
2022/05/28 01:44:21;;;;;;;5.30;2.80;;;;;;;15.06;67.75;97004.50;4937300;29;20068;-81
2022/05/28 01:46:51;;;;;;;4.40;2.85;;;;;;;15.05;66.94;97008.13;4936836;29;20056;-79
2022/05/28 01:49:21;;;;;;;5.10;3.33;;;;;;;15.03;66.61;97007.53;4938749;29;20253;-80
2022/05/28 01:51:51;;;;;;;4.97;2.78;;;;;;;14.98;65.29;97007.31;4941298;29;20079;-80
2022/05/28 01:54:24;;;;;;;5.15;3.03;;;;;;;14.94;64.09;97011.34;4941235;29;20056;-80
2022/05/28 01:56:55;;;;;;;4.13;2.42;;;;;;;14.88;63.14;97002.44;4940077;29;20056;-79
2022/05/28 01:59:25;;;;;;;3.50;2.22;;;;;;;14.85;63.74;97008.09;4940281;29;20078;-80
2022/05/28 02:01:55;;;;;;;4.43;2.45;;;;;;;14.81;62.84;97006.88;4939999;29;20079;-81
2022/05/28 02:04:23;;;;;;;5.68;2.72;;;;;;;14.76;62.39;97004.03;4942296;29;20329;-80
2022/05/28 02:06:50;;;;;;;5.47;2.53;;;;;;;14.73;62.51;97004.41;4940264;29;20063;-81
2022/05/28 02:09:22;;;;;;;4.05;2.17;;;;;;;14.69;61.53;96998.75;4940754;29;20111;-80
2022/05/28 02:12:09;;;;;;;8.70;2.40;;;;;;;14.67;61.56;97003.41;4940395;29;20112;-80
2022/05/28 02:14:51;;;;;;;7.45;2.47;;;;;;;14.63;60.47;97007.44;4937692;29;20115;-79
2022/05/28 02:17:22;;;;;;;6.13;2.22;;;;;;;14.58;60.62;97007.19;4936460;29;20083;-81
2022/05/28 02:19:58;;;;;;;4.63;1.98;;;;;;;14.53;60.39;97013.00;4937710;29;20056;-80
2022/05/28 02:22:34;;;;;;;4.75;2.22;;;;;;;14.48;60.35;97014.63;4939539;29;20076;-80
2022/05/28 02:25:08;;;;;;;6.70;2.20;;;;;;;14.47;61.11;97005.13;4939814;29;20056;-80
2022/05/28 02:27:40;;;;;;;8.02;2.70;;;;;;;14.42;60.02;97000.47;4938562;29;20086;-81
2022/05/28 02:30:11;;;;;;;3.55;1.90;;;;;;;14.38;59.30;96997.41;4939474;29;20052;-81
2022/05/28 02:32:38;;;;;;;3.85;1.83;;;;;;;14.35;59.69;96991.75;4939303;29;20032;-81
2022/05/28 02:35:08;;;;;;;5.22;2.35;;;;;;;14.35;60.82;97003.06;4939210;29;20143;-79
2022/05/28 02:37:35;;;;;;;6.65;2.72;;;;;;;14.33;59.10;97002.44;4938193;29;20058;-81
2022/05/28 02:40:04;;;;;;;4.20;2.10;;;;;;;14.31;60.43;97004.44;4939741;29;20051;-80
2022/05/28 02:42:32;;;;;;;8.15;2.63;;;;;;;14.27;59.84;96997.97;4938916;29;20116;-80
2022/05/28 02:45:01;;;;;;;5.32;1.95;;;;;;;14.24;59.37;97001.00;4938997;29;20052;-81
2022/05/28 02:47:29;;;;;;;5.03;2.35;;;;;;;14.17;59.16;97000.97;4938557;29;20123;-80
2022/05/28 02:49:56;;;;;;;6.18;1.85;;;;;;;14.09;58.75;97002.94;4938716;29;20072;-80
2022/05/28 02:52:24;;;;;;;10.32;2.20;;;;;;;14.03;59.07;96999.25;4938025;29;20052;-80
2022/05/28 02:54:52;;;;;;;5.03;2.03;;;;;;;13.94;58.94;97001.22;4938470;29;20048;-80
2022/05/28 02:57:19;;;;;;;7.10;2.38;;;;;;;13.87;59.39;97000.38;4937102;29;20119;-79
2022/05/28 02:59:47;;;;;;;6.47;2.42;;;;;;;13.86;60.26;97004.00;4936530;29;20066;-80
2022/05/28 03:02:16;;;;;;;6.38;2.65;;;;;;;13.81;59.55;97001.16;4937290;29;20107;-80
2022/05/28 03:04:43;;;;;;;7.18;2.30;;;;;;;13.74;59.52;97008.97;4938016;29;20071;-81
2022/05/28 03:07:11;;;;;;;7.82;2.58;;;;;;;13.68;59.90;97007.13;4936883;29;20072;-81
2022/05/28 03:09:39;;;;;;;6.05;2.75;;;;;;;13.64;60.03;97007.69;4941004;29;20103;-80
2022/05/28 03:12:07;;;;;;;5.93;2.30;;;;;;;13.63;60.82;97003.47;4937414;29;20056;-81
2022/05/28 03:14:34;;;;;;;6.85;2.50;;;;;;;13.63;60.33;97006.88;4936831;29;20119;-80
2022/05/28 03:17:02;;;;;;;5.50;1.98;;;;;;;13.64;61.02;96999.81;4937841;29;20068;-80
2022/05/28 03:19:31;;;;;;;8.15;3.10;;;;;;;13.58;60.44;97002.22;4941542;29;20079;-79
2022/05/28 03:21:59;;;;;;;4.82;2.50;;;;;;;13.54;60.75;97006.22;4938622;29;20068;-79
2022/05/28 03:24:26;;;;;;;5.93;2.13;;;;;;;13.48;61.14;96995.69;4937320;29;20083;-81
2022/05/28 03:26:57;;;;;;;7.90;2.75;;;;;;;13.46;61.71;96993.25;4936120;29;20060;-81
2022/05/28 03:29:25;;;;;;;5.18;2.08;;;;;;;13.44;61.27;97002.31;4937111;29;20082;-81
2022/05/28 03:31:53;;;;;;;5.68;2.38;;;;;;;13.41;62.76;97011.34;4936940;29;20056;-80
2022/05/28 03:34:21;;;;;;;13.65;2.53;;;;;;;13.41;62.56;97011.34;4936325;29;20120;-80
2022/05/28 03:36:50;;;;;;;4.97;2.35;;;;;;;13.42;64.11;97007.72;4935475;29;20044;-80
2022/05/28 03:39:17;;;;;;;12.95;2.65;;;;;;;13.38;62.75;97009.94;4936837;29;20071;-81
2022/05/28 03:41:45;;;;;;;4.80;2.30;;;;;;;13.33;63.31;97019.34;4935980;29;20078;-80
2022/05/28 03:44:13;;;;;;;3.58;2.22;;;;;;;13.26;61.69;97023.69;4936028;29;20151;-80
2022/05/28 03:46:42;;;;;;;3.85;1.90;;;;;;;13.17;63.01;97021.19;4934202;29;20060;-80
2022/05/28 03:49:20;;;;;;;5.05;1.70;;;;;;;13.18;62.33;97030.69;4934185;29;20052;-80
2022/05/28 03:51:49;;;;;;;2.75;2.05;;;;;;;13.10;61.41;97030.81;4935718;29;20108;-80
2022/05/28 03:54:17;;;;;;;6.65;2.72;;;;;;;13.05;63.01;97027.91;4934867;29;20066;-80
2022/05/28 03:56:46;;;;;;;4.53;2.42;;;;;;;12.98;62.07;97042.75;4934095;29;20472;-80
2022/05/28 03:59:14;;;;;;;6.63;2.78;;;;;;;12.91;62.14;97039.28;4935986;29;20139;-80
2022/05/28 04:01:42;;;;;;;7.35;2.20;;;;;;;12.91;62.79;97036.66;4936334;29;20116;-81
2022/05/28 04:04:09;;;;;;;4.35;2.13;;;;;;;12.95;63.73;97037.91;4935793;29;20048;-80
2022/05/28 04:06:38;;;;;;;5.82;2.10;;;;;;;12.86;62.30;97033.78;4934639;29;20059;-80
2022/05/28 04:09:08;;;;;;;5.32;2.47;;;;;;;12.67;62.49;97037.78;4934758;29;20052;-81
2022/05/28 04:11:36;;;;;;;3.90;2.20;;;;;;;12.56;62.78;97039.88;4934296;29;20493;-80
2022/05/28 04:14:04;;;;;;;5.65;2.58;;;;;;;12.50;63.02;97043.22;4933996;29;20052;-80
2022/05/28 04:16:33;;;;;;;6.25;2.30;;;;;;;12.45;63.09;97042.16;4933835;29;20115;-81
2022/05/28 04:19:01;;;;;;;8.70;3.03;;;;;;;12.44;63.40;97035.28;4933366;29;20052;-80
2022/05/28 04:21:28;;;;;;;4.00;2.00;;;;;;;12.50;63.83;97050.28;4932942;29;20048;-80
2022/05/28 04:23:57;;;;;;;5.18;2.58;;;;;;;12.48;63.30;97047.03;4932335;29;20067;-80
2022/05/28 04:26:26;;;;;;;6.35;2.55;;;;;;;12.39;63.30;97045.50;4931629;29;20051;-80
2022/05/28 04:28:54;;;;;;;6.72;3.42;;;;;;;12.28;63.42;97047.59;4937172;29;20055;-79
2022/05/28 04:31:21;;;;;;;8.68;3.10;;;;;;;12.19;63.59;97047.88;4941803;29;20095;-79
2022/05/28 04:33:49;;;;;;;11.23;2.80;;;;;;;12.15;63.78;97045.59;4941352;29;20080;-79
2022/05/28 04:36:17;;;;;;;5.60;2.65;;;;;;;12.16;63.30;97051.66;4940444;29;20079;-80
2022/05/28 04:38:44;;;;;;;4.13;2.50;;;;;;;12.20;65.06;97045.09;4940408;29;20047;-80
2022/05/28 04:41:12;;;;;;;4.88;2.70;;;;;;;12.28;64.74;97044.97;4934759;29;20115;-81
2022/05/28 04:43:41;;;;;;;5.55;3.03;;;;;;;12.29;63.72;97053.66;4931967;29;20131;-80
2022/05/28 04:46:09;;;;;;;8.68;3.30;;;;;;;12.26;63.61;97046.94;4931717;29;20575;-80
2022/05/28 04:48:38;;;;;;;6.30;2.50;;;;;;;12.27;63.88;97051.19;4931886;29;20044;-80
2022/05/28 04:51:06;;;;;;;7.50;3.05;;;;;;;12.30;62.90;97058.69;4937014;29;20119;-80
2022/05/28 04:53:34;;;;;;;8.57;2.78;;;;;;;12.25;62.79;97063.66;4931575;29;20108;-81
2022/05/28 04:56:01;;;;;;;3.88;2.55;;;;;;;12.21;62.98;97062.38;4930055;29;20048;-80
2022/05/28 04:58:29;;;;;;;4.63;2.05;;;;;;;12.20;63.07;97071.22;4937315;29;20076;-79
2022/05/28 05:00:58;;;;;;;4.63;2.70;;;;;;;12.16;63.13;97064.75;4931474;29;20062;-81
2022/05/28 05:03:26;;;;;;;6.63;2.38;;;;;;;12.19;62.97;97064.38;4931582;29;20048;-80
2022/05/28 05:05:54;;;;;;;5.20;2.15;;;;;;;12.25;63.60;97073.31;4929910;29;20048;-81
2022/05/28 05:08:21;;;;;;;7.65;2.47;;;;;;;12.29;62.95;97070.16;4931157;29;20075;-80
2022/05/28 05:10:49;;;;;;;7.80;3.13;;;;;;;12.33;62.58;97071.41;4930756;29;20048;-81
2022/05/28 05:13:17;;;;;;;4.22;2.40;;;;;;;12.40;63.72;97070.66;4930901;29;20127;-81
2022/05/28 05:15:44;;;;;;;6.10;2.20;;;;;;;12.48;63.60;97065.34;4930875;29;20115;-81
2022/05/28 05:18:13;;;;;;;7.03;2.15;;;;;;;12.52;62.08;97079.69;4930965;29;20115;-80
2022/05/28 05:20:41;;;;;;;6.80;2.47;;;;;;;12.56;62.60;97073.91;4931826;29;20059;-80
2022/05/28 05:23:09;;;;;;;4.15;1.70;;;;;;;12.63;63.51;97078.41;4930508;29;20048;-80
2022/05/28 05:25:36;;;;;;;3.20;1.70;;;;;;;12.69;64.45;97080.31;4931185;29;20075;-80
2022/05/28 05:28:05;;;;;;;8.50;2.30;;;;;;;12.72;62.85;97078.13;4931282;29;20393;-80
2022/05/28 05:30:33;;;;;;;3.40;1.73;;;;;;;12.76;63.42;97083.81;4930880;29;20080;-80
2022/05/28 05:33:00;;;;;;;5.57;1.80;;;;;;;12.80;63.68;97085.06;4930777;29;20048;-81
2022/05/28 05:35:29;;;;;;;6.00;2.22;;;;;;;12.83;63.52;97083.88;4930938;29;20120;-80
2022/05/28 05:37:59;;;;;;;5.88;2.40;;;;;;;12.86;63.00;97086.16;4931228;29;20072;-80
2022/05/28 05:40:26;;;;;;;6.00;2.33;;;;;;;12.87;62.36;97088.56;4931714;29;20111;-81
2022/05/28 05:42:54;;;;;;;5.55;2.65;;;;;;;12.90;62.68;97079.53;4930767;29;20135;-83
2022/05/28 05:45:21;;;;;;;11.38;2.80;;;;;;;12.94;63.05;97083.41;4930576;29;20048;-82
2022/05/28 05:47:49;;;;;;;7.40;2.53;;;;;;;12.98;62.91;97084.66;4929985;29;20067;-82
2022/05/28 05:50:16;;;;;;;4.95;2.45;;;;;;;13.02;62.72;97083.28;4931373;29;20048;-82
2022/05/28 05:52:46;;;;;;;7.00;1.95;;;;;;;13.04;62.36;97089.16;4935068;29;20048;-82
2022/05/28 05:55:16;;;;;;;8.10;2.50;;;;;;;13.07;62.13;97091.41;4932269;29;20080;-82
2022/05/28 05:57:43;;;;;;;11.20;2.58;;;;;;;13.10;62.26;97088.44;4928929;29;20052;-82
2022/05/28 06:00:12;;;;;;;4.28;1.77;;;;;;;13.13;62.21;97093.28;4930702;29;20048;-82
2022/05/28 06:02:40;;;;;;;4.90;1.88;;;;;;;13.16;61.73;97086.84;4930970;29;20465;-81
2022/05/28 06:05:09;;;;;;;7.45;2.40;;;;;;;13.17;60.72;97091.13;4930047;29;20092;-81
2022/05/28 06:07:38;;;;;;;5.53;2.03;;;;;;;13.16;60.80;97086.84;4929561;29;20509;-83
2022/05/28 06:10:10;;;;;;;4.72;1.92;;;;;;;13.18;61.06;97090.94;4930414;29;20052;-82
2022/05/28 06:12:38;;;;;;;5.10;2.05;;;;;;;13.22;60.75;97087.94;4930614;29;20048;-82
2022/05/28 06:15:07;;;;;;;2.95;1.60;;;;;;;13.25;61.61;97084.94;4930518;29;20458;-82
2022/05/28 06:17:35;;;;;;;6.05;2.35;;;;;;;13.28;60.26;97084.56;4929550;29;20127;-83
2022/05/28 06:20:03;;;;;;;4.63;1.70;;;;;;;13.31;60.27;97089.47;4930800;29;20045;-83
2022/05/28 06:22:31;;;;;;;8.90;2.28;;;;;;;13.33;59.46;97084.84;4930564;29;20054;-82
2022/05/28 06:24:59;;;;;;;3.22;1.52;;;;;;;13.32;57.13;97089.28;4930908;29;20057;-82
2022/05/28 06:27:28;;;;;;;4.78;1.38;;;;;;;13.31;56.29;97094.69;4930516;29;20079;-82
2022/05/28 06:29:56;;;;;;;3.72;1.30;;;;;;;13.29;55.88;97086.22;4931207;29;20108;-83
2022/05/28 06:32:23;;;;;;;4.70;1.20;;;;;;;13.31;55.69;97089.47;4931011;29;20112;-83
2022/05/28 06:34:51;;;;;;;5.50;1.60;;;;;;;13.35;55.64;97086.28;4932660;29;20056;-83
2022/05/28 06:37:19;;;;;;;2.22;1.23;;;;;;;13.38;55.55;97095.56;4934077;29;20055;-82
2022/05/28 06:39:46;;;;;;;4.25;0.90;;;;;;;13.41;54.52;97094.41;4934492;29;20051;-82
2022/05/28 06:42:14;;;;;;;3.75;0.95;;;;;;;13.44;53.82;97086.16;4934790;29;20504;-82
2022/05/28 06:44:43;;;;;;;4.97;1.13;;;;;;;13.46;54.21;97081.53;4934555;29;20124;-83
2022/05/28 06:47:10;;;;;;;2.70;0.90;;;;;;;13.51;53.86;97085.22;4934209;29;20089;-82
2022/05/28 06:49:38;;;;;;;3.95;0.90;;;;;;;13.55;53.55;97086.44;4939693;29;20040;-83
2022/05/28 06:52:06;;;;;;;2.20;1.33;;;;;;;13.57;53.54;97089.69;4935110;29;20112;-83
2022/05/28 06:54:33;;;;;;;2.33;0.93;;;;;;;13.59;53.30;97079.84;4934911;29;20110;-83
2022/05/28 06:57:01;;;;;;;4.70;1.20;;;;;;;13.62;53.00;97080.47;4934546;29;20066;-82
2022/05/28 06:59:28;;;;;;;3.50;1.10;;;;;;;13.64;53.02;97078.47;4934912;29;20051;-82
2022/05/28 07:01:57;;;;;;;3.63;1.10;;;;;;;13.68;51.73;97082.34;4939955;29;20048;-83
2022/05/28 07:04:25;;;;;;;2.85;1.10;;;;;;;13.73;52.86;97077.31;4935999;29;20084;-81
2022/05/28 07:06:53;;;;;;;5.03;1.50;;;;;;;13.76;51.91;97079.59;4935418;29;20111;-80
2022/05/28 07:09:21;;;;;;;4.57;1.05;;;;;;;13.76;51.52;97072.53;4936738;29;20079;-81
2022/05/28 07:11:48;;;;;;;3.55;1.30;;;;;;;13.78;52.62;97077.59;4936056;29;20124;-80
2022/05/28 07:14:16;;;;;;;6.57;1.52;;;;;;;13.79;51.69;97071.31;4935636;29;20095;-80
2022/05/28 07:16:43;;;;;;;4.18;1.00;;;;;;;13.83;51.67;97069.94;4935234;29;20142;-79
2022/05/28 07:19:12;;;;;;;4.90;1.20;;;;;;;13.91;51.99;97079.50;4936346;29;20063;-81
2022/05/28 07:21:40;;;;;;;3.88;1.00;;;;;;;13.97;52.69;97079.53;4936770;29;20187;-80
2022/05/28 07:24:08;;;;;;;1.98;0.88;;;;;;;14.02;52.03;97076.34;4937085;29;20079;-80
2022/05/28 07:26:35;;;;;;;3.28;0.82;;;;;;;14.06;50.53;97077.59;4936479;29;20056;-80
2022/05/28 07:29:03;;;;;;;4.75;1.00;;;;;;;14.09;50.63;97081.63;4937300;29;20090;-81
2022/05/28 07:31:31;;;;;;;3.70;0.85;;;;;;;14.10;50.61;97075.38;4937449;29;20072;-80
2022/05/28 07:33:59;;;;;;;9.30;1.30;;;;;;;14.13;50.16;97072.38;4936865;29;20056;-80
2022/05/28 07:36:28;;;;;;;3.15;0.93;;;;;;;14.13;49.61;97062.69;4936288;29;20068;-80
2022/05/28 07:38:56;;;;;;;5.68;1.52;;;;;;;14.13;50.40;97065.31;4937646;29;20062;-80
2022/05/28 07:41:26;;;;;;;4.68;1.35;;;;;;;14.15;49.84;97065.13;4937275;29;20112;-81
2022/05/28 07:43:55;;;;;;;7.50;1.02;;;;;;;14.16;50.69;97067.53;4937583;29;20046;-81
2022/05/28 07:46:25;;;;;;;4.82;1.13;;;;;;;14.21;51.02;97069.56;4939157;29;20120;-80
2022/05/28 07:48:54;;;;;;;5.13;1.67;;;;;;;14.24;49.85;97063.97;4937494;29;20044;-81
2022/05/28 07:51:22;;;;;;;3.33;1.08;;;;;;;14.30;51.54;97065.81;4936594;29;20048;-81
2022/05/28 07:53:52;;;;;;;8.02;1.25;;;;;;;14.38;51.22;97060.38;4937026;29;20071;-80
2022/05/28 07:56:20;;;;;;;2.70;0.77;;;;;;;14.47;52.03;97052.34;4937541;29;20072;-81
2022/05/28 07:58:50;;;;;;;2.90;0.93;;;;;;;14.54;50.61;97054.03;4939566;29;20048;-81
2022/05/28 08:01:19;;;;;;;4.65;1.20;;;;;;;14.60;49.99;97048.00;4939899;29;20115;-80
2022/05/28 08:03:48;;;;;;;1.33;0.50;;;;;;;14.66;49.70;97050.88;4939155;29;20062;-80
2022/05/28 08:06:16;;;;;;;7.32;1.20;;;;;;;14.70;49.00;97049.47;4937353;29;20075;-80
2022/05/28 08:08:44;;;;;;;2.42;0.90;;;;;;;14.74;49.66;97046.25;4938279;29;20096;-80
2022/05/28 08:11:14;;;;;;;7.60;1.80;;;;;;;14.82;48.76;97053.13;4938528;29;20184;-80
2022/05/28 08:13:42;;;;;;;10.82;1.77;;;;;;;14.87;47.93;97048.13;4937926;29;20056;-80
2022/05/28 08:16:09;;;;;;;4.43;1.35;;;;;;;14.93;49.68;97051.75;4953577;23;20056;-78
2022/05/28 08:18:39;;;;;;;2.97;0.75;;;;;;;14.98;48.32;97047.53;4931510;29;20044;-78
2022/05/28 08:23:54;;;;;;;3.67;1.10;;;;;;;15.01;48.55;97054.19;4926261;29;20083;-79
2022/05/28 08:26:24;;;;;;;3.78;0.93;;;;;;;15.05;47.57;97052.81;4925664;29;20044;-77
2022/05/28 08:28:53;;;;;;;2.70;0.70;;;;;;;15.11;47.12;97051.19;4925427;29;20052;-77
2022/05/28 08:31:21;;;;;;;5.75;1.20;;;;;;;15.13;47.49;97044.75;4925894;29;20052;-77
2022/05/28 08:33:50;;;;;;;2.17;1.13;;;;;;;15.17;47.90;97051.19;4925466;29;20044;-78
2022/05/28 08:36:18;;;;;;;3.38;0.93;;;;;;;15.20;47.25;97042.94;4925257;29;20115;-77
2022/05/28 08:38:46;;;;;;;4.07;0.93;;;;;;;15.24;46.48;97051.22;4925412;29;20059;-78
2022/05/28 08:41:17;;;;;;;3.03;0.98;;;;;;;15.30;46.85;97052.22;4927991;29;20632;-77
2022/05/28 08:43:51;;;;;;;3.35;0.98;;;;;;;15.33;45.56;97050.03;4931308;29;20500;-77
2022/05/28 08:46:19;;;;;;;2.45;0.80;;;;;;;15.33;46.04;97041.34;4924139;29;20440;-77
2022/05/28 08:48:49;;;;;;;2.33;0.85;;;;;;;15.34;45.74;97045.56;4925630;29;20060;-78
2022/05/28 08:51:28;;;;;;;2.65;0.90;;;;;;;15.33;45.37;97044.75;4926082;29;20044;-78
2022/05/28 08:54:02;;;;;;;4.32;1.00;;;;;;;15.39;46.06;97045.75;4925365;29;20060;-78
2022/05/28 08:56:31;;;;;;;3.33;0.85;;;;;;;15.44;45.08;97038.09;4925592;29;20048;-80
2022/05/28 08:59:06;;;;;;;4.80;0.77;;;;;;;15.48;44.03;97036.69;4924206;29;20048;-80
2022/05/28 09:01:37;;;;;;;3.13;0.82;;;;;;;15.51;45.73;97032.84;4926423;29;20096;-78
2022/05/28 09:04:07;;;;;;;3.15;0.60;;;;;;;15.54;44.60;97043.75;4924721;29;20075;-77
2022/05/28 09:06:40;;;;;;;2.97;0.68;;;;;;;15.58;45.23;97038.91;4926602;29;20051;-79
2022/05/28 09:09:09;;;;;;;3.55;0.80;;;;;;;15.60;45.14;97037.69;4924604;29;20048;-79
2022/05/28 09:11:41;;;;;;;5.00;0.70;;;;;;;15.62;44.82;97034.88;4925508;29;20052;-80
2022/05/28 09:14:23;;;;;;;5.75;0.98;;;;;;;15.67;44.22;97037.69;4925796;29;20048;-77
2022/05/28 09:16:52;;;;;;;2.92;0.60;;;;;;;15.70;44.06;97036.47;4924263;29;20066;-79
2022/05/28 09:19:23;;;;;;;2.95;0.85;;;;;;;15.74;43.93;97037.72;4924686;29;20119;-78
2022/05/28 09:21:51;;;;;;;3.53;0.95;;;;;;;15.79;44.52;97030.03;4925106;29;20048;-78
2022/05/28 09:24:24;;;;;;;3.70;0.70;;;;;;;15.87;44.40;97024.53;4925297;29;20054;-77
2022/05/28 09:26:59;;;;;;;1.33;0.50;;;;;;;15.93;42.86;97026.34;4924369;29;20048;-78
2022/05/28 09:29:47;;;;;;;4.32;0.90;;;;;;;15.97;42.22;97022.31;4925771;29;20052;-78
2022/05/28 09:32:24;;;;;;;3.08;0.52;;;;;;;16.02;42.09;97025.13;4924757;29;20055;-77
2022/05/28 09:35:02;;;;;;;2.65;0.80;;;;;;;16.09;43.16;97024.31;4928451;29;20504;-79
2022/05/28 09:37:42;;;;;;;4.35;1.15;;;;;;;16.14;42.72;97021.88;4925886;29;20090;-78
2022/05/28 09:40:16;;;;;;;4.60;0.77;;;;;;;16.19;43.02;97025.50;4927050;29;20148;-78
2022/05/28 09:43:05;;;;;;;2.35;0.60;;;;;;;16.25;44.42;97023.88;4923016;29;20056;-77
2022/05/28 09:45:45;;;;;;;2.08;0.50;;;;;;;16.28;43.38;97018.19;4922863;29;20048;-77
2022/05/28 09:48:21;;;;;;;3.03;0.95;;;;;;;16.33;43.00;97020.19;4924815;29;20119;-77
2022/05/28 09:50:49;;;;;;;3.40;0.70;;;;;;;16.37;44.76;97016.94;4924513;29;20070;-78
2022/05/28 09:56:22;;;;;;;3.53;0.90;;;;;;;16.48;42.10;97010.19;4925935;29;20132;-78
2022/05/28 09:58:50;;;;;;;4.85;0.85;;;;;;;16.46;41.85;97015.69;4924722;29;20083;-77
2022/05/28 10:01:24;;;;;;;4.22;0.75;;;;;;;16.45;40.88;97006.16;4925260;29;20080;-77
2022/05/28 10:06:49;;;;;;;3.58;0.70;;;;;;;16.42;42.52;97013.66;4923905;29;20079;-77
2022/05/28 10:09:20;;;;;;;3.63;1.27;;;;;;;16.38;40.80;97010.66;4925331;29;20055;-79
2022/05/28 10:11:53;;;;;;;3.40;0.68;;;;;;;16.36;40.99;97014.53;4928773;29;20115;-79
2022/05/28 10:14:21;;;;;;;1.42;0.68;;;;;;;16.35;41.64;97003.16;4928009;29;20534;-77
2022/05/28 10:16:55;;;;;;;3.58;0.82;;;;;;;16.36;41.38;96996.91;4926501;29;20054;-77
2022/05/28 10:19:29;;;;;;;2.72;0.65;;;;;;;16.41;41.18;96999.69;4927861;29;20059;-77
2022/05/28 10:22:00;;;;;;;4.63;0.70;;;;;;;16.50;42.01;96999.47;4927303;29;20052;-77
2022/05/28 10:24:31;;;;;;;3.80;0.60;;;;;;;16.57;41.01;96994.97;4929234;29;20059;-79
2022/05/28 10:27:01;;;;;;;2.78;0.55;;;;;;;16.61;40.94;96994.34;4928831;29;20115;-78
2022/05/28 10:29:36;;;;;;;2.08;0.47;;;;;;;16.66;41.59;96989.28;4929359;29;20588;-79
2022/05/28 10:32:17;;;;;;;3.40;0.65;;;;;;;16.72;40.21;96987.59;4929272;29;20155;-78
2022/05/28 10:34:45;;;;;;;1.90;0.60;;;;;;;16.74;40.51;96982.13;4929351;29;20062;-80
2022/05/28 10:37:16;;;;;;;2.03;0.60;;;;;;;16.74;40.86;96990.84;4928851;29;20067;-77
2022/05/28 10:39:44;;;;;;;1.88;0.50;;;;;;;16.78;41.42;96981.50;4928526;29;20048;-78
2022/05/28 10:42:13;;;;;;;2.03;0.52;;;;;;;16.86;41.20;96989.19;4928443;29;20088;-78
2022/05/28 10:44:44;;;;;;;1.70;0.60;;;;;;;16.96;39.63;96982.63;4928704;29;20488;-77
2022/05/28 10:47:30;;;;;;;2.92;0.77;;;;;;;17.06;40.44;96977.72;4928590;29;20432;-79
2022/05/28 10:50:08;;;;;;;6.28;0.70;;;;;;;17.16;38.06;96985.94;4929980;29;20063;-77
2022/05/28 10:52:49;;;;;;;6.63;0.88;;;;;;;17.22;37.16;96979.81;4930127;29;20112;-78
2022/05/28 10:55:22;;;;;;;0.73;0.40;;;;;;;17.21;36.42;96970.31;4929855;29;20062;-80
2022/05/28 10:58:08;;;;;;;2.42;0.60;;;;;;;17.27;38.05;96964.19;4929918;29;20056;-77
2022/05/28 11:00:46;;;;;;;2.67;0.75;;;;;;;17.36;38.34;96966.53;4929722;29;20048;-79
2022/05/28 11:03:52;;;;;;;4.45;1.08;;;;;;;17.42;37.91;96965.66;4929641;29;20448;-77
2022/05/28 11:06:46;;;;;;;3.35;0.90;;;;;;;17.37;37.86;96976.06;4920365;29;20048;-77
2022/05/28 11:09:23;;;;;;;3.97;0.73;;;;;;;17.32;37.57;96975.88;4929445;29;20135;-77
2022/05/28 11:12:01;;;;;;;2.13;0.75;;;;;;;17.30;38.14;96969.00;4932990;29;20048;-77
2022/05/28 11:14:46;;;;;;;3.38;0.68;;;;;;;17.35;38.32;96964.91;4927921;29;20124;-78
2022/05/28 11:17:25;;;;;;;6.10;1.83;;;;;;;17.40;38.38;96951.88;4927828;29;20052;-78
2022/05/28 11:20:09;;;;;;;2.65;0.65;;;;;;;17.39;37.52;96953.72;4927485;29;20044;-77
2022/05/28 11:23:14;;;;;;;3.47;0.90;;;;;;;17.41;37.99;96956.16;4928631;29;20112;-78
2022/05/28 11:25:56;;;;;;;2.83;0.60;;;;;;;17.48;38.09;96948.97;4919241;29;20052;-79
2022/05/28 11:28:36;;;;;;;3.55;0.63;;;;;;;17.57;38.93;96942.41;4934863;29;20509;-80
2022/05/28 11:31:13;;;;;;;2.83;0.85;;;;;;;17.65;37.57;96941.31;4928425;29;20044;-78
2022/05/28 11:33:47;;;;;;;2.65;0.68;;;;;;;17.68;37.24;96941.66;4929780;29;20059;-77
2022/05/28 11:36:24;;;;;;;3.47;1.30;;;;;;;17.71;38.43;96943.88;4927933;29;20056;-79
2022/05/28 11:38:55;;;;;;;2.30;0.85;;;;;;;17.71;37.06;96943.88;4928983;29;20076;-78
2022/05/28 11:41:29;;;;;;;3.17;0.60;;;;;;;17.73;36.30;96937.56;4929283;29;20058;-77
2022/05/28 11:44:07;;;;;;;2.75;0.95;;;;;;;17.73;36.26;96937.56;4928859;29;20056;-78
2022/05/28 11:46:43;;;;;;;3.97;0.90;;;;;;;17.70;36.27;96942.25;4927677;29;20056;-78
2022/05/28 11:52:13;;;;;;;2.63;0.73;;;;;;;17.63;36.35;96936.25;4928188;29;20503;-80
2022/05/28 11:54:44;;;;;;;3.90;1.25;;;;;;;17.60;37.06;96936.69;4929050;29;20059;-77
2022/05/28 11:57:21;;;;;;;3.90;0.90;;;;;;;17.61;37.18;96933.03;4928736;29;20059;-79
2022/05/28 11:59:50;;;;;;;2.55;0.80;;;;;;;17.59;37.04;96929.00;4928447;29;20135;-77
2022/05/28 12:02:24;;;;;;;2.67;0.70;;;;;;;17.57;37.44;96925.78;4929509;29;20060;-78